Hoxie, Arkansas
Current Conditions -  °F | °C
As of 1:15 PM on Friday 21 Nov 2014 (Local Time) from KARG Reporting Station
Overcast Overcast  
Wind Chill: 39°   Ceiling: 1800
Heat Index: 43°   Visibility: 8mi
Dew Point: 34°   Wind: 7mph
Humidity: 70%   Direction: 60°ENE
Pressure: 30.31"   Gusts: NA
Location:  36.05°N, 90.98°W
Report Text: KARG 211915Z AUTO 06006KT 8SM BKN018 OVC027 06/01 A3031 RMK AO1
Loading
Personal Weather Stations






























Interactive Weather Map New forecast layout! Learn more

10-Day Weather Forecast

Advertisements
Track Severe Weather on mobile